createdAt,value
2023-03-25T00:40:28.770Z,8.80
2023-03-25T00:45:50.039Z,8.61
2023-03-25T00:49:05.013Z,8.71
2023-03-25T00:58:01.121Z,8.62
2023-03-25T01:03:16.080Z,8.60
2023-03-25T01:06:11.772Z,8.73
2023-03-25T01:08:40.815Z,8.60
2023-03-25T01:23:48.663Z,8.48
2023-03-25T01:26:34.171Z,8.40
2023-03-25T01:42:14.824Z,8.26
2023-03-25T01:47:34.904Z,8.29
2023-03-25T02:16:55.189Z,8.64
2023-03-25T02:27:23.449Z,8.73
2023-03-25T02:30:33.831Z,8.74
2023-03-25T02:44:07.951Z,8.77
2023-03-25T02:53:10.873Z,8.58
2023-03-25T02:59:20.863Z,8.58
2023-03-25T03:01:52.503Z,8.58
2023-03-25T03:08:10.458Z,8.53
2023-03-25T03:45:09.143Z,7.93
2023-03-25T03:47:52.072Z,7.77
2023-03-25T03:50:42.777Z,7.68
2023-03-25T04:00:32.903Z,7.68
2023-03-25T04:04:00.105Z,7.54
2023-03-25T04:14:19.112Z,7.63
2023-03-25T04:20:37.273Z,7.42
2023-03-25T04:23:08.358Z,7.42
2023-03-25T04:26:03.067Z,7.51
2023-03-25T04:31:25.859Z,7.57
2023-03-25T04:39:50.159Z,7.68
2023-03-25T05:11:25.946Z,7.32
2023-03-25T05:21:29.588Z,7.51
2023-03-25T05:24:04.982Z,7.46
2023-03-25T05:29:21.328Z,7.43
2023-03-25T05:31:49.234Z,7.53
2023-03-25T05:41:50.068Z,7.66
2023-03-25T06:03:18.010Z,7.65
2023-03-25T06:25:43.551Z,7.47
2023-03-25T06:28:17.027Z,7.47
2023-03-25T06:30:45.446Z,7.45
2023-03-25T06:33:42.875Z,7.34
2023-03-25T06:36:10.395Z,7.22
2023-03-25T06:38:45.147Z,7.11
2023-03-25T06:41:14.159Z,7.13
2023-03-25T06:43:47.965Z,7.01
2023-03-25T06:46:22.889Z,7.09
2023-03-25T06:52:07.031Z,7.12
2023-03-25T07:13:49.626Z,6.99
2023-03-25T07:22:51.216Z,7.11
2023-03-25T07:25:18.388Z,7.15
2023-03-25T07:27:45.585Z,7.22
2023-03-25T07:30:19.045Z,7.32
2023-03-25T07:32:53.120Z,7.44
2023-03-25T07:35:20.163Z,7.50
2023-03-25T07:37:54.010Z,7.58
2023-03-25T07:40:20.927Z,7.64
2023-03-25T07:42:54.033Z,7.62
2023-03-25T07:45:21.151Z,7.77
2023-03-25T07:47:57.079Z,7.84
2023-03-25T07:50:25.541Z,7.90
2023-03-25T07:53:00.051Z,8.02
2023-03-25T07:55:26.957Z,8.06
2023-03-25T07:58:00.015Z,8.10
2023-03-25T08:00:34.049Z,8.07
2023-03-25T08:03:01.121Z,8.03
2023-03-25T08:05:35.209Z,7.96
2023-03-25T08:08:05.996Z,7.90
2023-03-25T08:10:40.271Z,7.80
2023-03-25T08:13:07.475Z,7.83
2023-03-25T08:15:42.146Z,7.81
2023-03-25T08:18:09.318Z,7.77
2023-03-25T08:20:43.163Z,7.77
2023-03-25T08:23:19.724Z,7.88
2023-03-25T08:25:56.063Z,7.96
2023-03-25T08:28:23.562Z,8.00
2023-03-25T08:31:02.084Z,7.90
2023-03-25T08:33:41.435Z,7.89
2023-03-25T08:36:27.099Z,7.75
2023-03-25T08:38:54.313Z,7.74
2023-03-25T08:41:28.202Z,7.70
2023-03-25T08:43:56.051Z,7.68
2023-03-25T08:46:30.074Z,7.76
2023-03-25T08:49:04.658Z,7.86
2023-03-25T08:51:32.220Z,8.01
2023-03-25T08:54:06.332Z,8.14
2023-03-25T08:56:33.966Z,8.15
2023-03-25T08:59:07.151Z,8.21
2023-03-25T09:01:34.446Z,8.27
2023-03-25T09:04:08.101Z,8.42
2023-03-25T09:06:47.992Z,8.56
2023-03-25T09:09:23.014Z,8.69
2023-03-25T09:11:57.315Z,8.73
2023-03-25T09:14:31.296Z,8.78
2023-03-25T09:17:05.277Z,8.71
2023-03-25T09:19:34.835Z,8.72
2023-03-25T09:22:15.357Z,8.68
2023-03-25T09:24:55.154Z,8.68
2023-03-25T09:27:22.283Z,8.83
2023-03-25T09:29:56.280Z,8.89
2023-03-25T09:32:23.549Z,8.92
2023-03-25T09:34:50.373Z,8.90
2023-03-25T09:37:24.122Z,8.78
2023-03-25T09:39:51.008Z,8.77
2023-03-25T09:42:58.045Z,8.82
2023-03-25T09:45:49.857Z,8.78
2023-03-25T09:48:42.122Z,8.66
2023-03-25T09:51:14.982Z,8.61
2023-03-25T09:54:33.022Z,8.60
2023-03-25T09:57:13.216Z,8.62
2023-03-25T09:59:43.200Z,8.70
2023-03-25T10:02:47.243Z,8.76
2023-03-25T10:05:43.241Z,8.74
2023-03-25T10:08:29.076Z,8.74
2023-03-25T10:11:19.024Z,8.71
2023-03-25T10:14:23.009Z,8.93
2023-03-25T10:17:17.020Z,9.45
2023-03-25T10:20:26.076Z,9.76
2023-03-25T10:23:18.086Z,10.27
2023-03-25T10:25:48.073Z,10.40
2023-03-25T10:28:27.037Z,10.38
2023-03-25T10:31:02.365Z,10.33
2023-03-25T10:33:44.258Z,10.25
2023-03-25T10:36:26.140Z,10.54
2023-03-25T10:39:04.191Z,10.92
2023-03-25T10:41:45.065Z,10.91
2023-03-25T10:44:12.597Z,11.25
2023-03-25T10:47:08.056Z,11.34
2023-03-25T10:49:37.266Z,11.28
2023-03-25T10:52:11.207Z,11.44
2023-03-25T10:54:44.487Z,11.46
2023-03-25T10:57:26.111Z,11.69
2023-03-25T10:59:58.808Z,11.80
2023-03-25T11:02:35.309Z,11.83
2023-03-25T11:05:05.346Z,11.73
2023-03-25T11:08:14.741Z,11.53
2023-03-25T11:10:52.013Z,11.32
2023-03-25T11:13:37.144Z,11.07
2023-03-25T11:16:05.091Z,10.80
2023-03-25T11:18:49.224Z,10.74
2023-03-25T11:21:18.808Z,10.50
2023-03-25T11:23:57.230Z,10.31
2023-03-25T11:26:39.042Z,10.27
2023-03-25T11:29:22.118Z,10.15
2023-03-25T11:32:11.106Z,10.15
2023-03-25T11:34:57.412Z,10.20
2023-03-25T11:37:32.133Z,10.48
2023-03-25T11:40:15.240Z,10.39
2023-03-25T11:42:56.419Z,10.04
2023-03-25T11:45:48.988Z,9.81
2023-03-25T11:48:19.804Z,9.19
2023-03-25T11:51:05.435Z,8.92
2023-03-25T11:53:34.179Z,8.45
2023-03-25T11:56:13.160Z,8.36
2023-03-25T11:58:42.962Z,8.37
2023-03-25T12:01:37.120Z,8.63
2023-03-25T12:04:23.554Z,8.78
2023-03-25T12:07:13.446Z,8.98
2023-03-25T12:09:56.278Z,8.95
2023-03-25T12:13:01.865Z,9.00
2023-03-25T12:15:44.210Z,9.11
2023-03-25T12:18:41.161Z,9.29
2023-03-25T12:21:48.248Z,9.73
2023-03-25T12:24:33.917Z,10.10
2023-03-25T12:27:41.181Z,10.35
2023-03-25T12:30:30.297Z,10.69
2023-03-25T12:33:49.179Z,10.53
2023-03-25T12:36:44.680Z,10.29
2023-03-25T12:39:45.290Z,9.92
2023-03-25T12:42:22.115Z,9.83
2023-03-25T12:45:31.186Z,9.70
2023-03-25T12:48:17.377Z,9.63
2023-03-25T12:51:17.428Z,9.68
2023-03-25T12:54:02.754Z,10.12
2023-03-25T12:57:01.405Z,10.61
2023-03-25T12:59:50.442Z,11.10
2023-03-25T13:02:55.430Z,11.28
2023-03-25T13:05:28.326Z,11.08
2023-03-25T13:08:08.297Z,10.82
2023-03-25T13:10:45.581Z,11.12
2023-03-25T13:13:26.199Z,11.30
2023-03-25T13:16:11.922Z,11.81
2023-03-25T13:18:57.292Z,12.16
2023-03-25T13:21:30.712Z,12.29
2023-03-25T13:24:10.202Z,12.28
2023-03-25T13:26:40.729Z,12.49
2023-03-25T13:29:35.340Z,12.69
2023-03-25T13:32:10.373Z,12.70
2023-03-25T13:35:04.450Z,13.17
2023-03-25T13:37:46.603Z,13.05
2023-03-25T13:40:52.407Z,12.93
2023-03-25T13:43:59.216Z,12.70
2023-03-25T13:46:45.185Z,12.43
2023-03-25T13:49:38.268Z,12.00
2023-03-25T13:52:14.326Z,11.61
2023-03-25T13:55:24.677Z,11.32
2023-03-25T13:58:15.470Z,11.03
2023-03-25T14:01:18.393Z,10.80
2023-03-25T14:04:30.304Z,10.42
2023-03-25T14:07:10.253Z,10.31
2023-03-25T14:09:50.704Z,10.21
2023-03-25T14:12:39.267Z,9.95
2023-03-25T14:15:18.579Z,10.04
2023-03-25T14:20:27.746Z,10.13
2023-03-25T14:23:17.697Z,10.31
2023-03-25T14:25:56.200Z,10.25
2023-03-25T14:28:55.135Z,10.32
2023-03-25T14:31:33.393Z,10.68
2023-03-25T14:34:07.351Z,10.92
2023-03-25T14:36:41.906Z,11.06
2023-03-25T14:39:41.295Z,11.03
2023-03-25T14:42:08.525Z,10.85
2023-03-25T14:44:57.666Z,10.94
2023-03-25T14:47:33.452Z,10.93
2023-03-25T14:50:28.397Z,11.03
2023-03-25T14:53:00.433Z,10.94
2023-03-25T14:55:43.251Z,11.14
2023-03-25T14:58:32.201Z,11.54
2023-03-25T15:01:11.416Z,11.48
2023-03-25T15:03:44.380Z,11.72
2023-03-25T15:06:36.220Z,11.85
2023-03-25T15:09:22.313Z,11.75
2023-03-25T15:12:12.265Z,11.56
2023-03-25T15:14:43.249Z,11.33
2023-03-25T15:17:38.315Z,11.29
2023-03-25T15:20:13.387Z,11.28
2023-03-25T15:22:47.298Z,10.98
2023-03-25T15:25:20.128Z,10.17
2023-03-25T15:28:18.512Z,9.98
2023-03-25T15:31:35.279Z,9.94
2023-03-25T15:37:46.154Z,10.03
2023-03-25T15:40:33.789Z,9.91
2023-03-25T15:43:17.278Z,9.97
2023-03-25T15:46:07.358Z,9.98
2023-03-25T15:49:18.363Z,9.91
2023-03-25T15:52:01.089Z,9.83
2023-03-25T15:54:42.367Z,9.68
2023-03-25T15:57:26.091Z,9.56
2023-03-25T16:00:15.373Z,9.43
2023-03-25T16:03:06.751Z,9.35
2023-03-25T16:05:51.460Z,8.82
2023-03-25T16:08:41.785Z,8.51
2023-03-25T16:11:28.572Z,8.15
2023-03-25T16:14:31.214Z,8.06
2023-03-25T16:17:01.916Z,7.78
2023-03-25T16:19:49.597Z,7.88
2023-03-25T16:22:34.529Z,7.73
2023-03-25T16:25:12.494Z,7.68
2023-03-25T16:27:57.324Z,7.98
2023-03-25T16:30:40.561Z,7.87
2023-03-25T16:33:07.728Z,8.07
2023-03-25T16:35:51.652Z,8.11
2023-03-25T16:38:32.546Z,8.17
2023-03-25T16:41:17.363Z,7.98
2023-03-25T16:43:55.572Z,7.95
2023-03-25T16:46:23.844Z,7.91
2023-03-25T16:49:00.416Z,7.82
2023-03-25T16:51:36.557Z,7.82
2023-03-25T16:54:22.005Z,7.90
2023-03-25T16:56:49.698Z,7.72
2023-03-25T16:59:28.354Z,7.77
2023-03-25T17:01:58.538Z,7.79
2023-03-25T17:04:58.091Z,7.73
2023-03-25T17:07:28.536Z,7.68
2023-03-25T17:10:06.684Z,7.71
2023-03-25T17:12:35.683Z,7.62
2023-03-25T17:15:16.648Z,7.63
2023-03-25T17:17:51.939Z,7.65
2023-03-25T17:20:30.460Z,7.76
2023-03-25T17:23:08.505Z,7.77
2023-03-25T17:25:57.496Z,7.68
2023-03-25T17:28:40.366Z,7.65
2023-03-25T17:31:36.670Z,7.81
2023-03-25T17:34:24.315Z,7.83
2023-03-25T17:37:10.294Z,7.76
2023-03-25T17:39:44.466Z,7.83
2023-03-25T17:42:34.504Z,7.78
2023-03-25T17:45:05.188Z,7.77
2023-03-25T17:47:44.467Z,7.92
2023-03-25T17:50:43.218Z,7.76
2023-03-25T17:53:17.531Z,7.91
2023-03-25T17:55:45.797Z,7.88
2023-03-25T17:58:23.438Z,7.79
2023-03-25T18:00:52.945Z,7.78
2023-03-25T18:03:30.312Z,7.79
2023-03-25T18:05:58.866Z,7.91
2023-03-25T18:08:33.415Z,7.78
2023-03-25T18:11:09.887Z,7.81
2023-03-25T18:13:52.617Z,7.82
2023-03-25T18:16:22.169Z,7.85
2023-03-25T18:18:58.391Z,7.78
2023-03-25T18:21:26.218Z,7.94
2023-03-25T18:24:03.318Z,7.78
2023-03-25T18:26:30.935Z,7.93
2023-03-25T18:29:05.494Z,7.82
2023-03-25T18:31:39.455Z,7.83
2023-03-25T18:34:07.071Z,7.74
2023-03-25T18:36:41.677Z,7.89
2023-03-25T18:39:21.518Z,7.79
2023-03-25T18:41:59.438Z,7.79
2023-03-25T18:44:28.769Z,7.87
2023-03-25T18:47:02.488Z,7.77
2023-03-25T18:49:29.886Z,7.82
2023-03-25T18:52:00.115Z,7.88
2023-03-25T18:54:37.127Z,7.70
2023-03-25T18:57:13.494Z,7.71
2023-03-25T18:59:40.861Z,7.75
2023-03-25T19:02:15.571Z,7.76
2023-03-25T19:04:59.677Z,7.79
2023-03-25T19:10:23.656Z,7.57
2023-03-25T19:13:00.414Z,7.57
2023-03-25T19:15:30.892Z,7.58
2023-03-25T19:18:05.571Z,7.54
2023-03-25T19:23:22.411Z,7.57
2023-03-25T19:26:01.585Z,7.62
2023-03-25T19:28:36.793Z,7.52
2023-03-25T19:31:10.688Z,7.49
2023-03-25T19:33:41.347Z,7.63
2023-03-25T19:36:18.020Z,7.46
2023-03-25T19:41:43.416Z,7.52
2023-03-25T19:44:21.685Z,7.44
2023-03-25T19:46:55.652Z,7.52
2023-03-25T19:49:36.864Z,7.52
2023-03-25T19:52:13.393Z,7.50
2023-03-25T19:54:40.704Z,7.45
2023-03-25T19:57:16.862Z,7.45
2023-03-25T19:59:44.581Z,7.48
2023-03-25T20:02:19.491Z,7.47
2023-03-25T20:04:50.158Z,7.44
2023-03-25T20:07:26.610Z,7.59
2023-03-25T20:10:16.698Z,7.44
2023-03-25T20:12:56.467Z,7.51
2023-03-25T20:15:26.067Z,7.47
2023-03-25T20:18:05.008Z,7.64
2023-03-25T20:20:32.527Z,7.55
2023-03-25T20:23:13.531Z,7.60
2023-03-25T20:25:49.764Z,7.58
2023-03-25T20:28:26.678Z,7.58
2023-03-25T20:30:55.751Z,7.62
2023-03-25T20:33:35.556Z,7.77
2023-03-25T20:36:03.231Z,7.79
2023-03-25T20:38:41.887Z,7.70
2023-03-25T20:41:21.516Z,7.63
2023-03-25T20:43:57.470Z,7.78
2023-03-25T20:46:28.881Z,7.63
2023-03-25T20:49:07.750Z,7.73
2023-03-25T20:51:38.372Z,7.55
2023-03-25T20:54:12.479Z,7.60
2023-03-25T20:56:40.076Z,7.62
2023-03-25T20:59:09.677Z,7.59
2023-03-25T21:01:44.528Z,7.68
2023-03-25T21:04:13.986Z,7.75
2023-03-25T21:06:48.611Z,7.61
2023-03-25T21:09:35.464Z,7.58
2023-03-25T21:12:09.575Z,7.57
2023-03-25T21:14:38.580Z,7.64
2023-03-25T21:17:12.460Z,7.72
2023-03-25T21:19:43.302Z,7.59
2023-03-25T21:22:10.845Z,7.65
2023-03-25T21:24:44.466Z,7.58
2023-03-25T21:27:37.942Z,7.56
2023-03-25T21:32:54.187Z,7.62
2023-03-25T21:35:25.887Z,7.68
2023-03-25T21:40:47.495Z,7.51
2023-03-25T21:43:14.884Z,7.60
2023-03-25T21:45:48.745Z,7.53
2023-03-25T21:48:25.677Z,7.54
2023-03-25T21:54:07.542Z,7.53
2023-03-25T21:56:40.327Z,7.62
2023-03-25T21:59:14.439Z,7.63
2023-03-25T22:01:42.097Z,7.52
2023-03-25T22:09:44.568Z,7.48
2023-03-25T22:12:18.524Z,7.59
2023-03-25T22:14:52.534Z,7.59
2023-03-25T22:17:20.308Z,7.53
2023-03-25T22:19:55.523Z,7.43
2023-03-25T22:22:31.505Z,7.50
2023-03-25T22:24:58.835Z,7.51
2023-03-25T22:27:37.818Z,7.42
2023-03-25T22:30:08.740Z,7.41
2023-03-25T22:35:20.703Z,7.54
2023-03-25T22:43:28.567Z,7.35
2023-03-25T22:45:59.391Z,7.54
2023-03-25T22:48:38.524Z,7.35
2023-03-25T22:51:07.311Z,7.36
2023-03-25T22:53:41.786Z,7.39
2023-03-25T22:56:10.123Z,7.35
2023-03-25T22:58:44.413Z,7.33
2023-03-25T23:01:24.125Z,7.35
2023-03-25T23:03:59.723Z,7.32
2023-03-25T23:06:28.024Z,7.41
2023-03-25T23:09:05.492Z,7.22
2023-03-25T23:11:39.756Z,7.19
2023-03-25T23:14:25.628Z,7.24
2023-03-25T23:16:58.531Z,7.20
2023-03-25T23:19:35.397Z,7.16
2023-03-25T23:22:03.137Z,7.16
2023-03-25T23:38:59.069Z,6.98
2023-03-25T23:41:36.525Z,7.00
2023-03-25T23:44:04.852Z,7.02
2023-03-25T23:46:41.639Z,7.02
2023-03-25T23:49:22.519Z,6.98
2023-03-25T23:52:52.626Z,7.15
2023-03-25T23:55:20.886Z,7.07
2023-03-25T23:57:57.510Z,7.03
